createdAt,value
2023-05-17T00:02:01.297Z,96.94
2023-05-17T00:07:03.364Z,96.57
2023-05-17T00:12:05.316Z,97.08
2023-05-17T00:17:06.758Z,96.90
2023-05-17T00:22:08.375Z,96.86
2023-05-17T00:27:10.196Z,95.85
2023-05-17T00:32:11.712Z,97.44
2023-05-17T00:37:13.193Z,96.26
2023-05-17T00:42:14.811Z,96.85
2023-05-17T00:47:16.292Z,96.56
2023-05-17T00:52:17.853Z,96.96
2023-05-17T00:57:19.369Z,97.23
2023-05-17T01:02:20.847Z,98.04
2023-05-17T01:07:22.336Z,98.22
2023-05-17T01:12:39.076Z,98.23
2023-05-17T01:18:11.802Z,98.60
2023-05-17T01:23:42.152Z,98.64
2023-05-17T01:28:53.848Z,98.68
2023-05-17T01:33:58.017Z,99.36
2023-05-17T01:39:00.543Z,98.41
2023-05-17T01:44:11.056Z,95.65
2023-05-17T01:49:21.720Z,97.28
2023-05-17T01:54:38.185Z,97.32
2023-05-17T01:59:41.988Z,95.80
2023-05-17T02:04:43.546Z,95.18
2023-05-17T02:09:45.402Z,94.94
2023-05-17T02:14:46.961Z,95.59
2023-05-17T02:19:48.443Z,97.84
2023-05-17T02:24:49.938Z,95.82
2023-05-17T02:29:51.416Z,94.74
2023-05-17T02:34:52.881Z,95.62
2023-05-17T02:39:54.380Z,93.94
2023-05-17T02:44:57.928Z,93.92
2023-05-17T02:49:59.428Z,92.43
2023-05-17T02:55:01.019Z,92.25
2023-05-17T03:00:03.407Z,91.70
2023-05-17T03:05:05.142Z,91.26
2023-05-17T03:10:07.460Z,89.78
2023-05-17T03:15:09.193Z,89.25
2023-05-17T03:20:10.978Z,89.35
2023-05-17T03:25:12.482Z,88.30
2023-05-17T03:30:14.207Z,87.18
2023-05-17T03:35:15.792Z,87.54
2023-05-17T03:40:17.330Z,88.06
2023-05-17T03:45:18.851Z,88.09
2023-05-17T03:50:20.601Z,87.76
2023-05-17T03:55:22.257Z,86.55
2023-05-17T04:00:24.635Z,85.17
2023-05-17T04:05:26.873Z,85.42
2023-05-17T04:10:28.677Z,87.24
2023-05-17T04:15:30.315Z,84.61
2023-05-17T04:20:31.895Z,84.68
2023-05-17T04:25:33.374Z,85.46
2023-05-17T04:30:34.866Z,83.73
2023-05-17T04:35:38.529Z,81.92
2023-05-17T04:40:40.786Z,82.47
2023-05-17T04:45:42.254Z,82.60
2023-05-17T04:50:46.296Z,80.56
2023-05-17T04:55:50.802Z,81.29
2023-05-17T05:00:52.863Z,81.00
2023-05-17T05:05:54.371Z,78.62
2023-05-17T05:10:55.957Z,79.83
2023-05-17T05:15:57.465Z,79.42
2023-05-17T05:20:59.341Z,79.25
2023-05-17T05:26:00.943Z,75.70
2023-05-17T05:31:02.483Z,75.52
2023-05-17T05:36:04.269Z,76.49
2023-05-17T05:41:05.771Z,74.42
2023-05-17T05:46:08.053Z,72.92
2023-05-17T05:51:09.679Z,74.14
2023-05-17T05:56:11.187Z,74.09
2023-05-17T06:01:12.943Z,72.06
2023-05-17T06:06:16.680Z,71.25
2023-05-17T06:11:18.785Z,70.25
2023-05-17T06:16:20.240Z,69.95
2023-05-17T06:21:22.026Z,71.52
2023-05-17T06:26:23.856Z,71.22
2023-05-17T06:31:25.385Z,72.02
2023-05-17T06:36:26.933Z,69.84
2023-05-17T06:41:28.518Z,70.53
2023-05-17T06:46:29.994Z,69.79
2023-05-17T06:51:31.588Z,69.87
2023-05-17T06:56:33.036Z,70.13
2023-05-17T07:01:34.736Z,69.53
2023-05-17T07:06:36.241Z,68.83
2023-05-17T07:11:37.776Z,68.80
2023-05-17T07:16:39.302Z,68.86
2023-05-17T07:21:41.713Z,68.67
2023-05-17T07:26:43.230Z,68.72
2023-05-17T07:31:44.701Z,70.13
2023-05-17T07:36:46.147Z,68.70
2023-05-17T07:41:47.683Z,69.02
2023-05-17T07:46:49.343Z,70.30
2023-05-17T07:51:51.299Z,70.08
2023-05-17T07:56:57.170Z,70.04
2023-05-17T08:01:58.616Z,68.59
2023-05-17T08:07:00.982Z,68.82
2023-05-17T08:12:02.600Z,69.24
2023-05-17T08:17:04.416Z,68.22
2023-05-17T08:22:05.905Z,68.20
2023-05-17T08:27:07.403Z,68.33
2023-05-17T08:32:08.901Z,69.09
2023-05-17T08:37:10.453Z,67.81
2023-05-17T08:42:12.953Z,68.01
2023-05-17T08:47:25.965Z,67.68
2023-05-17T08:52:32.266Z,66.12
2023-05-17T08:57:37.672Z,67.26
2023-05-17T09:02:40.462Z,66.50
2023-05-17T09:07:42.918Z,66.78
2023-05-17T09:12:44.939Z,66.82
2023-05-17T09:17:56.917Z,67.16
2023-05-17T09:22:59.337Z,66.04
2023-05-17T09:28:02.369Z,65.55
2023-05-17T09:33:12.382Z,63.86
2023-05-17T09:38:16.116Z,64.62
2023-05-17T09:43:24.262Z,64.62
2023-05-17T09:48:30.163Z,63.91
2023-05-17T09:53:33.351Z,64.11
2023-05-17T09:58:37.395Z,63.37
2023-05-17T10:03:39.221Z,63.60
2023-05-17T10:08:46.282Z,63.61
2023-05-17T10:14:07.714Z,62.22
2023-05-17T10:19:11.561Z,62.93
2023-05-17T10:24:13.838Z,63.37
2023-05-17T10:29:16.970Z,63.76
2023-05-17T10:34:19.916Z,62.29
2023-05-17T10:39:22.196Z,62.53
2023-05-17T10:44:24.742Z,62.64
2023-05-17T10:49:34.052Z,64.01
2023-05-17T10:54:36.927Z,63.70
2023-05-17T10:59:56.724Z,62.16
2023-05-17T11:05:00.505Z,62.70
2023-05-17T11:10:07.984Z,62.67
2023-05-17T11:15:14.220Z,62.31
2023-05-17T11:20:16.767Z,61.96
2023-05-17T11:25:19.359Z,61.60
2023-05-17T11:30:28.874Z,62.03
2023-05-17T11:35:35.334Z,61.12
2023-05-17T11:40:37.334Z,60.92
2023-05-17T11:46:06.808Z,61.49
2023-05-17T11:51:08.350Z,62.98
2023-05-17T11:56:11.477Z,61.38
2023-05-17T12:01:13.027Z,61.39
2023-05-17T12:06:17.470Z,62.25
2023-05-17T12:11:19.238Z,62.05
2023-05-17T12:16:24.558Z,61.75
2023-05-17T12:21:26.123Z,62.00
2023-05-17T12:26:27.588Z,62.51
2023-05-17T12:31:38.393Z,62.21
2023-05-17T12:36:40.577Z,62.15
2023-05-17T12:41:43.100Z,63.63
2023-05-17T12:46:45.181Z,63.04
2023-05-17T12:51:47.390Z,63.74
2023-05-17T12:56:48.899Z,63.83
2023-05-17T13:01:55.824Z,64.53
2023-05-17T13:07:02.255Z,64.22
2023-05-17T13:12:07.763Z,63.26
2023-05-17T13:17:11.157Z,62.40
2023-05-17T13:22:12.663Z,62.55
2023-05-17T13:27:14.462Z,62.69
2023-05-17T13:32:15.993Z,61.33
2023-05-17T13:37:17.583Z,61.49
2023-05-17T13:42:19.076Z,61.80
2023-05-17T13:47:20.736Z,61.29
2023-05-17T13:52:23.167Z,61.86
2023-05-17T13:57:24.672Z,62.04
2023-05-17T14:02:26.539Z,60.93
2023-05-17T14:07:28.624Z,61.54
2023-05-17T14:12:30.106Z,61.77
2023-05-17T14:17:33.166Z,60.96
2023-05-17T14:22:34.695Z,60.70
2023-05-17T14:27:36.156Z,61.04
2023-05-17T14:32:39.117Z,60.87
2023-05-17T14:37:40.726Z,60.19
2023-05-17T14:42:43.236Z,60.74
2023-05-17T14:47:45.071Z,60.41
2023-05-17T14:52:46.627Z,59.97
2023-05-17T14:57:48.106Z,59.45
2023-05-17T15:02:50.245Z,59.89
2023-05-17T15:07:52.650Z,59.97
2023-05-17T15:12:54.098Z,60.18
2023-05-17T15:17:55.651Z,59.73
2023-05-17T15:22:57.138Z,59.80
2023-05-17T15:27:58.814Z,59.52
2023-05-17T15:33:01.366Z,60.31
2023-05-17T15:38:07.368Z,58.29
2023-05-17T15:43:08.834Z,59.27
2023-05-17T15:48:11.419Z,59.63
2023-05-17T15:53:13.154Z,59.00
2023-05-17T15:58:14.732Z,59.13
2023-05-17T16:03:16.387Z,58.79
2023-05-17T16:08:17.818Z,58.70
2023-05-17T16:13:19.308Z,59.12
2023-05-17T16:18:20.983Z,58.66
2023-05-17T16:23:22.515Z,59.21
2023-05-17T16:28:24.298Z,58.76
2023-05-17T16:33:26.631Z,58.34
2023-05-17T16:38:28.361Z,58.04
2023-05-17T16:43:30.958Z,58.16
2023-05-17T16:48:32.447Z,58.17
2023-05-17T16:53:33.909Z,56.87
2023-05-17T16:58:35.397Z,58.09
2023-05-17T17:03:36.955Z,58.73
2023-05-17T17:08:38.722Z,58.59
2023-05-17T17:13:40.503Z,58.61
2023-05-17T17:18:42.026Z,59.33
2023-05-17T17:23:44.467Z,59.14
2023-05-17T17:28:46.021Z,59.31
2023-05-17T17:33:47.477Z,59.03
2023-05-17T17:38:48.940Z,59.48
2023-05-17T17:43:50.394Z,59.66
2023-05-17T17:48:52.370Z,60.04
2023-05-17T17:53:55.445Z,59.73
2023-05-17T17:58:57.168Z,59.98
2023-05-17T18:03:59.133Z,60.02
2023-05-17T18:09:00.629Z,59.95
2023-05-17T18:14:06.190Z,59.92
2023-05-17T18:19:07.761Z,59.84
2023-05-17T18:24:09.397Z,59.82
2023-05-17T18:29:10.969Z,59.85
2023-05-17T18:34:12.432Z,59.71
2023-05-17T18:39:13.913Z,59.85
2023-05-17T18:44:16.200Z,58.79
2023-05-17T18:49:18.404Z,58.33
2023-05-17T18:54:19.865Z,58.29
2023-05-17T18:59:21.330Z,59.11
2023-05-17T19:04:22.868Z,59.78
2023-05-17T19:09:24.341Z,60.21
2023-05-17T19:14:25.878Z,60.92
2023-05-17T19:19:27.418Z,60.71
2023-05-17T19:24:28.917Z,60.45
2023-05-17T19:29:32.613Z,61.06
2023-05-17T19:34:34.140Z,61.21
2023-05-17T19:39:36.351Z,60.34
2023-05-17T19:44:38.364Z,58.76
2023-05-17T19:49:39.902Z,59.83
2023-05-17T19:54:41.404Z,59.57
2023-05-17T19:59:42.880Z,60.00
2023-05-17T20:04:44.345Z,59.98
2023-05-17T20:09:45.874Z,58.91
2023-05-17T20:14:47.445Z,58.62
2023-05-17T20:19:48.900Z,57.80
2023-05-17T20:24:50.655Z,58.22
2023-05-17T20:29:52.139Z,57.92
2023-05-17T20:34:53.668Z,57.65
2023-05-17T20:39:59.903Z,58.59
2023-05-17T20:45:01.412Z,59.20
2023-05-17T20:50:04.047Z,59.70
2023-05-17T20:55:10.336Z,60.33
2023-05-17T21:00:12.208Z,60.76
2023-05-17T21:05:13.794Z,62.05
2023-05-17T21:10:15.361Z,62.33
2023-05-17T21:15:19.699Z,64.47
2023-05-17T21:20:22.302Z,63.62
2023-05-17T21:25:26.057Z,63.27
2023-05-17T21:30:27.606Z,63.73
2023-05-17T21:35:29.225Z,62.89
2023-05-17T21:40:31.178Z,62.28
2023-05-17T21:45:33.849Z,61.89
2023-05-17T21:50:35.307Z,61.31
2023-05-17T21:55:51.291Z,61.08
2023-05-17T22:00:58.514Z,60.73
2023-05-17T22:06:01.416Z,60.30
2023-05-17T22:11:03.757Z,60.30
2023-05-17T22:16:06.168Z,60.74
2023-05-17T22:21:08.794Z,60.78
2023-05-17T22:26:10.602Z,60.97
2023-05-17T22:31:14.611Z,61.16
2023-05-17T22:36:17.845Z,61.55
2023-05-17T22:41:19.318Z,61.79
2023-05-17T22:46:20.882Z,61.95
2023-05-17T22:51:22.532Z,62.28
2023-05-17T22:56:24.425Z,62.94
2023-05-17T23:01:26.081Z,62.82
2023-05-17T23:06:27.642Z,63.34
2023-05-17T23:11:29.834Z,63.63
2023-05-17T23:16:31.385Z,64.11
2023-05-17T23:21:33.247Z,64.49
2023-05-17T23:26:35.152Z,64.50
2023-05-17T23:31:37.592Z,64.61
2023-05-17T23:36:39.345Z,64.57
2023-05-17T23:41:41.035Z,64.62
2023-05-17T23:46:44.596Z,64.76
2023-05-17T23:51:46.538Z,65.27
2023-05-17T23:56:48.117Z,65.10
